KCDR/CDR METAR and TAF weather

Enter ICAO airport designator
Station Type Date Time Source
KCDR METAR 2019/12/13 00:53 UTC NOAA

KCDR 130053Z AUTO 24005KT 10SM CLR 02/M02 A2985 RMK AO2 SLP138 T00221017


Station Type Date Time Source
KCDR Decoded METAR 2019/12/13 00:53 UTC NOAA

CHADRON MUNICIPAL AIRPORT, NE, United States (KCDR) 42-50N 103-06W 1010M
Dec 12, 2019 - 07:53 PM EST / 2019.12.13 0053 UTC
Wind: from the WSW (240 degrees) at 6 MPH (5 KT):0
Visibility: 10 mile(s):0
Sky conditions: clear
Temperature: 36.0 F (2.2 C)
Dew Point: 28.9 F (-1.7 C)
Relative Humidity: 75%
Pressure (altimeter): 29.85 in. Hg (1010 hPa)
ob: KCDR 130053Z AUTO 24005KT 10SM CLR 02/M02 A2985 RMK AO2 SLP138 T00221017
cycle: 1

Station Type Date Time Source
KCDR TAF 2019/12/12 18:39 UTC NOAA

TAF KCDR 121736Z 1218/1318 26004KT P6SM SKC
FM131400 25005KT P6SM BKN150

Example: see airport list